Time;durP1;ratioP1;P1;durP2;ratioP2;P2;SDS_P1;SDS_P2;PMS_P1;PMS_P2;Temp;Humidity;BMP_temperature;BMP_pressure;BME280_temperature;BME280_humidity;BME280_pressure;Samples;Min_cycle;Max_cycle;Signal;HPM_P1;HPM_P2
2021/05/22 00:00:24;;;;;;;7.22;2.72;;;11.80;99.90;;;;;;4161795;28;20033;-75
2021/05/22 00:02:25;;;;;;;9.73;3.42;;;11.70;99.90;;;;;;4163114;28;20442;-75
2021/05/22 00:04:27;;;;;;;6.30;2.90;;;11.50;99.90;;;;;;4163581;28;20057;-77
2021/05/22 00:06:28;;;;;;;9.15;3.80;;;11.50;99.90;;;;;;4163143;28;20029;-76
2021/05/22 00:08:28;;;;;;;6.30;2.72;;;11.40;99.90;;;;;;4160443;28;20042;-76
2021/05/22 00:10:29;;;;;;;7.75;2.83;;;11.40;99.90;;;;;;4161702;28;20053;-76
2021/05/22 00:12:30;;;;;;;6.68;2.38;;;11.30;99.90;;;;;;4163127;28;20025;-77
2021/05/22 00:14:31;;;;;;;6.82;3.05;;;11.30;99.90;;;;;;4162901;28;20158;-77
2021/05/22 00:16:33;;;;;;;7.22;2.83;;;11.30;99.90;;;;;;4161240;28;20088;-76
2021/05/22 00:18:34;;;;;;;5.67;2.87;;;11.30;99.90;;;;;;4161486;28;20036;-76
2021/05/22 00:20:35;;;;;;;7.38;2.60;;;11.30;99.90;;;;;;4161538;28;20026;-77
2021/05/22 00:22:36;;;;;;;7.07;2.70;;;11.30;99.90;;;;;;4161264;28;20537;-76
2021/05/22 00:24:37;;;;;;;4.15;3.70;;;11.30;99.90;;;;;;4162907;28;20061;-76
2021/05/22 00:26:38;;;;;;;4.25;2.67;;;11.30;99.90;;;;;;4161761;28;20108;-75
2021/05/22 00:28:44;;;;;;;7.45;2.97;;;11.20;99.90;;;;;;4161534;28;20372;-77
2021/05/22 00:30:45;;;;;;;9.82;3.03;;;11.20;99.90;;;;;;4161601;28;20047;-76
2021/05/22 00:32:47;;;;;;;5.47;2.28;;;11.10;99.90;;;;;;4161430;28;20116;-77
2021/05/22 00:34:47;;;;;;;7.65;2.88;;;11.20;99.90;;;;;;4162525;28;20385;-76
2021/05/22 00:36:48;;;;;;;6.85;2.10;;;11.30;99.90;;;;;;4162475;28;20026;-76
2021/05/22 00:38:48;;;;;;;8.90;2.70;;;11.30;99.90;;;;;;4161470;28;20486;-77
2021/05/22 00:40:49;;;;;;;9.95;3.38;;;11.20;99.90;;;;;;4160811;28;20417;-77
2021/05/22 00:42:50;;;;;;;10.10;3.13;;;11.20;99.90;;;;;;4161401;28;20107;-77
2021/05/22 00:45:08;;;;;;;4.07;2.50;;;11.20;99.90;;;;;;4162979;28;20061;-76
2021/05/22 00:47:08;;;;;;;8.82;2.95;;;11.20;99.90;;;;;;4162921;28;20048;-76
2021/05/22 00:49:10;;;;;;;7.20;3.20;;;11.30;99.90;;;;;;4163040;28;20060;-75
2021/05/22 00:51:11;;;;;;;7.85;3.35;;;11.30;99.90;;;;;;4161379;28;20064;-76
2021/05/22 00:53:12;;;;;;;7.18;3.72;;;11.30;99.90;;;;;;4161096;28;20099;-76
2021/05/22 00:55:14;;;;;;;9.75;4.07;;;11.30;99.90;;;;;;4162662;28;20484;-76
2021/05/22 00:57:17;;;;;;;5.55;3.10;;;11.40;99.90;;;;;;4161346;28;20037;-76
2021/05/22 00:59:18;;;;;;;3.35;2.50;;;11.40;99.90;;;;;;4162303;28;20037;-76
2021/05/22 01:01:19;;;;;;;8.65;2.47;;;11.50;99.90;;;;;;4161432;28;20036;-75
2021/05/22 01:03:40;;;;;;;12.35;3.95;;;11.50;99.90;;;;;;4161599;28;20029;-76
2021/05/22 01:05:43;;;;;;;8.40;3.33;;;11.40;99.90;;;;;;4162583;28;20065;-76
2021/05/22 01:07:47;;;;;;;5.78;2.42;;;11.20;99.90;;;;;;4162779;28;20026;-75
2021/05/22 01:09:50;;;;;;;8.02;2.47;;;11.20;99.90;;;;;;4161168;28;20030;-76
2021/05/22 01:12:12;;;;;;;3.53;3.20;;;11.30;99.90;;;;;;4161910;28;20511;-75
2021/05/22 01:14:36;;;;;;;14.30;3.33;;;11.20;99.90;;;;;;4162146;28;20014;-76
2021/05/22 01:16:38;;;;;;;;;;;11.30;99.90;;;;;;4162635;28;20040;-76
2021/05/22 01:18:42;;;;;;;6.38;1.90;;;11.30;99.90;;;;;;4161110;28;19923;-74
2021/05/22 01:20:51;;;;;;;12.98;2.88;;;11.30;99.90;;;;;;4177593;28;20083;-75
2021/05/22 01:22:56;;;;;;;14.20;2.80;;;11.30;99.90;;;;;;4161034;28;20042;-75
2021/05/22 01:25:20;;;;;;;8.65;2.97;;;11.20;99.90;;;;;;4162298;28;20385;-75
2021/05/22 01:27:20;;;;;;;;;;;11.00;99.90;;;;;;4160482;28;20190;-75
2021/05/22 01:29:22;;;;;;;5.55;2.50;;;11.00;99.90;;;;;;4160732;28;19921;-75
2021/05/22 01:31:23;;;;;;;10.38;3.45;;;11.00;99.90;;;;;;4162456;28;20104;-76
2021/05/22 01:33:24;;;;;;;11.50;3.30;;;11.00;99.90;;;;;;4163636;28;20026;-76
2021/05/22 01:35:24;;;;;;;7.47;2.70;;;11.10;99.90;;;;;;4164958;28;20029;-75
2021/05/22 01:37:26;;;;;;;11.43;2.58;;;11.20;99.90;;;;;;4151614;28;20054;-76
2021/05/22 01:39:27;;;;;;;4.90;2.25;;;11.20;99.90;;;;;;4165213;28;20060;-75
2021/05/22 01:41:28;;;;;;;8.35;3.03;;;11.30;99.90;;;;;;4164751;28;20064;-76
2021/05/22 01:43:28;;;;;;;6.15;2.42;;;11.30;99.90;;;;;;4164636;28;20516;-76
2021/05/22 01:45:33;;;;;;;4.55;2.30;;;11.30;99.90;;;;;;4165440;28;20026;-77
2021/05/22 01:47:35;;;;;;;8.85;3.28;;;11.30;99.90;;;;;;4163422;28;20107;-76
2021/05/22 01:49:35;;;;;;;4.78;2.25;;;11.30;99.90;;;;;;4166007;28;20032;-76
2021/05/22 01:51:36;;;;;;;9.48;3.17;;;11.30;99.90;;;;;;4181516;28;20508;-76
2021/05/22 01:53:40;;;;;;;13.80;3.20;;;11.20;99.90;;;;;;4163459;28;20041;-76
2021/05/22 01:55:41;;;;;;;9.25;2.63;;;11.10;99.90;;;;;;4181676;28;20025;-75
2021/05/22 01:57:43;;;;;;;8.35;2.67;;;11.00;99.90;;;;;;4181196;28;20035;-76
2021/05/22 01:59:44;;;;;;;6.85;2.97;;;10.90;99.90;;;;;;4180825;28;20484;-76
2021/05/22 02:01:50;;;;;;;7.60;3.50;;;10.90;99.90;;;;;;4163438;28;20025;-76
2021/05/22 02:03:53;;;;;;;6.63;3.75;;;10.80;99.90;;;;;;4181421;28;20032;-75
2021/05/22 02:05:56;;;;;;;3.33;2.08;;;10.70;99.90;;;;;;4180888;28;20547;-75
2021/05/22 02:07:57;;;;;;;4.28;2.70;;;10.70;99.90;;;;;;4162973;28;20568;-77
2021/05/22 02:09:59;;;;;;;11.63;2.55;;;10.80;99.90;;;;;;4181792;28;20090;-76
2021/05/22 02:12:03;;;;;;;9.95;3.20;;;10.70;99.90;;;;;;4181162;28;20029;-77
2021/05/22 02:14:08;;;;;;;8.65;2.42;;;10.60;99.90;;;;;;4163293;28;20484;-77
2021/05/22 02:16:10;;;;;;;10.18;2.38;;;10.60;99.90;;;;;;4163611;28;20049;-76
2021/05/22 02:18:13;;;;;;;5.78;2.30;;;10.70;99.90;;;;;;4162849;28;20041;-77
2021/05/22 02:20:16;;;;;;;4.55;2.33;;;10.70;99.90;;;;;;4181303;28;20112;-76
2021/05/22 02:22:21;;;;;;;7.80;2.15;;;10.80;99.90;;;;;;4162729;28;20049;-77
2021/05/22 02:24:25;;;;;;;3.72;2.17;;;10.90;99.90;;;;;;4181012;28;20025;-77
2021/05/22 02:26:27;;;;;;;2.83;2.30;;;10.90;99.90;;;;;;4163467;28;20067;-77
2021/05/22 02:28:30;;;;;;;5.22;2.65;;;10.90;99.90;;;;;;4180385;28;20484;-77
2021/05/22 02:30:30;;;;;;;7.45;3.05;;;10.90;99.90;;;;;;4163076;28;20789;-77
2021/05/22 02:32:31;;;;;;;3.60;2.20;;;10.90;99.90;;;;;;4163440;28;20132;-76
2021/05/22 02:34:46;;;;;;;8.43;3.33;;;10.90;99.90;;;;;;4180706;28;20048;-76
2021/05/22 02:36:49;;;;;;;8.13;2.97;;;11.00;99.90;;;;;;4163057;28;20120;-75
2021/05/22 02:38:52;;;;;;;7.93;4.35;;;10.90;99.90;;;;;;4163042;28;20049;-77
2021/05/22 02:40:56;;;;;;;5.38;2.60;;;11.00;99.90;;;;;;4162597;28;20178;-76
2021/05/22 02:43:01;;;;;;;5.95;2.30;;;11.10;99.90;;;;;;4179870;28;20048;-77
2021/05/22 02:45:14;;;;;;;8.15;2.50;;;11.00;99.90;;;;;;4162971;28;20036;-76
2021/05/22 02:47:16;;;;;;;4.65;2.67;;;10.90;99.90;;;;;;4162574;28;20370;-77
2021/05/22 02:49:20;;;;;;;3.85;2.70;;;10.80;99.90;;;;;;4180854;28;20372;-76
2021/05/22 02:51:23;;;;;;;10.07;2.65;;;10.90;99.90;;;;;;4162616;28;20135;-76
2021/05/22 02:53:27;;;;;;;6.63;2.45;;;11.10;99.90;;;;;;4164200;28;20032;-76
2021/05/22 02:55:29;;;;;;;8.38;2.63;;;11.00;99.90;;;;;;4164348;28;20380;-76
2021/05/22 02:57:31;;;;;;;7.20;2.33;;;10.90;99.90;;;;;;4162459;28;20113;-78
2021/05/22 02:59:32;;;;;;;3.88;2.28;;;10.90;99.90;;;;;;4162162;28;20031;-76
2021/05/22 03:01:34;;;;;;;6.65;2.40;;;10.90;99.90;;;;;;4162555;28;20033;-76
2021/05/22 03:03:36;;;;;;;5.07;2.38;;;11.00;99.90;;;;;;4164133;28;20507;-75
2021/05/22 03:05:38;;;;;;;2.60;2.03;;;11.00;99.90;;;;;;4163887;28;20021;-75
2021/05/22 03:07:40;;;;;;;7.75;3.22;;;10.90;99.90;;;;;;4162221;28;20043;-76
2021/05/22 03:09:41;;;;;;;3.22;2.15;;;10.80;99.90;;;;;;4163642;28;20109;-76
2021/05/22 03:11:42;;;;;;;4.78;2.15;;;10.90;99.90;;;;;;4163944;28;20067;-76
2021/05/22 03:13:43;;;;;;;10.85;2.60;;;10.80;99.90;;;;;;4162335;28;20030;-76
2021/05/22 03:15:44;;;;;;;11.07;3.08;;;10.70;99.90;;;;;;4162215;28;20028;-76
2021/05/22 03:17:44;;;;;;;6.20;3.38;;;10.70;99.90;;;;;;4163904;28;20461;-75
2021/05/22 03:19:45;;;;;;;3.70;2.50;;;10.70;99.90;;;;;;4163722;28;20037;-76
2021/05/22 03:21:45;;;;;;;5.75;2.83;;;10.70;99.90;;;;;;4163948;28;20087;-78
2021/05/22 03:23:46;;;;;;;7.72;2.33;;;10.70;99.90;;;;;;4163449;28;20026;-76
2021/05/22 03:25:47;;;;;;;3.83;2.05;;;10.70;99.90;;;;;;4162583;28;20064;-76
2021/05/22 03:27:47;;;;;;;15.15;3.17;;;10.70;99.90;;;;;;4163850;28;20088;-76
2021/05/22 03:29:48;;;;;;;8.15;2.72;;;10.70;99.90;;;;;;4163222;28;20044;-76
2021/05/22 03:31:49;;;;;;;7.68;2.20;;;10.70;99.90;;;;;;4163515;28;20038;-77
2021/05/22 03:33:50;;;;;;;6.78;2.85;;;10.70;99.90;;;;;;4162218;28;20299;-76
2021/05/22 03:35:50;;;;;;;8.75;2.25;;;10.80;99.90;;;;;;4163342;28;20060;-76
2021/05/22 03:37:52;;;;;;;7.25;2.97;;;10.80;99.90;;;;;;4157504;28;20503;-75
2021/05/22 03:39:52;;;;;;;4.50;2.28;;;10.80;99.90;;;;;;4161851;28;20065;-75
2021/05/22 03:41:53;;;;;;;5.68;2.53;;;10.80;99.90;;;;;;4162313;28;20040;-76
2021/05/22 03:43:54;;;;;;;6.85;2.22;;;10.90;99.90;;;;;;4163532;28;20029;-76
2021/05/22 03:45:54;;;;;;;5.65;2.40;;;10.90;99.90;;;;;;4162132;28;20416;-75
2021/05/22 03:47:55;;;;;;;7.75;2.40;;;11.00;99.90;;;;;;4163385;28;20057;-75
2021/05/22 03:49:55;;;;;;;6.85;3.33;;;10.90;99.90;;;;;;4161739;28;20084;-76
2021/05/22 03:51:56;;;;;;;7.15;2.78;;;11.00;99.90;;;;;;4163166;28;20041;-76
2021/05/22 03:53:57;;;;;;;4.07;2.80;;;11.10;99.90;;;;;;4163156;28;20025;-76
2021/05/22 03:55:58;;;;;;;6.85;3.30;;;11.00;99.90;;;;;;4161862;28;20485;-75
2021/05/22 03:57:59;;;;;;;5.97;2.78;;;10.90;99.90;;;;;;4162677;28;20059;-75
2021/05/22 03:59:59;;;;;;;7.07;2.38;;;10.80;99.90;;;;;;4163151;28;20030;-76
2021/05/22 04:02:00;;;;;;;8.70;2.88;;;10.80;99.90;;;;;;4163439;28;20111;-75
2021/05/22 04:04:01;;;;;;;5.63;2.60;;;10.70;99.90;;;;;;4161674;28;20061;-76
2021/05/22 04:06:03;;;;;;;5.55;2.30;;;10.60;99.90;;;;;;4161592;28;20030;-76
2021/05/22 04:08:04;;;;;;;7.03;2.90;;;10.50;99.90;;;;;;4163088;28;20381;-76
2021/05/22 04:10:06;;;;;;;9.30;2.95;;;10.40;99.90;;;;;;4163224;28;20045;-76
2021/05/22 04:12:07;;;;;;;7.90;2.58;;;10.40;99.90;;;;;;4161525;28;20512;-77
2021/05/22 04:14:07;;;;;;;6.80;2.85;;;10.40;99.90;;;;;;4163131;28;20116;-76
2021/05/22 04:16:08;;;;;;;9.65;2.75;;;10.30;99.90;;;;;;4162752;28;20179;-75
2021/05/22 04:18:09;;;;;;;13.05;3.40;;;10.20;99.90;;;;;;4162993;28;20029;-76
2021/05/22 04:20:10;;;;;;;6.22;2.25;;;10.20;99.90;;;;;;4161847;28;20052;-77
2021/05/22 04:22:11;;;;;;;15.80;2.78;;;10.10;99.90;;;;;;4162770;28;20113;-76
2021/05/22 04:24:12;;;;;;;9.10;2.83;;;10.00;99.90;;;;;;4162652;28;20072;-76
2021/05/22 04:26:12;;;;;;;5.40;2.60;;;10.00;99.90;;;;;;4161144;28;20068;-76
2021/05/22 04:28:13;;;;;;;8.50;2.60;;;10.10;99.90;;;;;;4161411;28;20092;-76
2021/05/22 04:30:17;;;;;;;9.80;3.78;;;10.00;99.90;;;;;;4162234;28;20033;-76
2021/05/22 04:32:17;;;;;;;7.78;4.32;;;10.00;99.90;;;;;;4163046;28;20035;-76
2021/05/22 04:34:18;;;;;;;5.50;2.72;;;10.10;99.90;;;;;;4161114;28;20113;-77
2021/05/22 04:36:18;;;;;;;9.27;4.40;;;10.00;99.90;;;;;;4161877;28;20411;-77
2021/05/22 04:38:19;;;;;;;11.02;2.97;;;9.90;99.90;;;;;;4160806;28;20029;-77
2021/05/22 04:40:20;;;;;;;9.18;4.05;;;9.80;99.90;;;;;;4160605;28;20431;-76
2021/05/22 04:42:20;;;;;;;9.43;2.88;;;9.70;99.90;;;;;;4162365;28;21565;-77
2021/05/22 04:44:21;;;;;;;7.65;3.08;;;9.70;99.90;;;;;;4161576;28;20546;-76
2021/05/22 04:46:22;;;;;;;8.63;2.83;;;9.70;99.90;;;;;;4161021;28;20476;-76
2021/05/22 04:48:23;;;;;;;7.65;3.28;;;9.70;99.90;;;;;;4161373;28;20026;-76
2021/05/22 04:50:27;;;;;;;9.20;3.20;;;9.50;99.90;;;;;;4172326;28;20435;-77
2021/05/22 04:52:27;;;;;;;8.07;4.25;;;9.60;99.90;;;;;;4163227;28;20033;-79
2021/05/22 04:54:29;;;;;;;7.93;3.08;;;9.50;99.90;;;;;;4161527;28;20544;-78
2021/05/22 04:56:30;;;;;;;6.80;3.22;;;9.40;99.90;;;;;;4162892;28;20045;-77
2021/05/22 04:58:30;;;;;;;17.77;4.45;;;9.40;99.90;;;;;;4162939;28;20041;-78
2021/05/22 05:00:31;;;;;;;8.63;2.90;;;9.50;99.90;;;;;;4163578;28;20639;-77
2021/05/22 05:02:32;;;;;;;6.03;2.70;;;9.40;99.90;;;;;;4163100;28;20040;-77
2021/05/22 05:04:33;;;;;;;16.38;3.58;;;9.40;99.90;;;;;;4161007;28;20026;-77
2021/05/22 05:06:34;;;;;;;8.20;3.33;;;9.40;99.90;;;;;;4164601;28;20071;-77
2021/05/22 05:08:35;;;;;;;9.50;3.35;;;9.40;99.90;;;;;;4165983;28;20087;-77
2021/05/22 05:10:35;;;;;;;6.88;3.10;;;9.40;99.90;;;;;;4165826;28;20037;-78
2021/05/22 05:12:38;;;;;;;11.00;3.28;;;9.40;99.90;;;;;;4165997;28;20385;-79
2021/05/22 05:14:39;;;;;;;;;;;9.40;99.90;;;;;;4166339;28;20064;-79
2021/05/22 05:16:40;;;;;;;8.95;2.88;;;9.50;99.90;;;;;;4164875;28;19947;-78
2021/05/22 05:18:42;;;;;;;8.50;4.07;;;9.40;99.90;;;;;;4163955;28;20586;-78
2021/05/22 05:20:43;;;;;;;8.07;3.50;;;9.50;99.90;;;;;;4166308;28;20079;-78
2021/05/22 05:22:50;;;;;;;5.43;2.78;;;9.60;99.90;;;;;;4164330;28;20150;-78
2021/05/22 05:24:51;;;;;;;11.63;3.85;;;9.60;99.90;;;;;;4163646;28;20033;-78
2021/05/22 05:26:53;;;;;;;10.27;3.35;;;9.50;99.90;;;;;;4165026;28;20037;-78
2021/05/22 05:28:53;;;;;;;8.85;3.83;;;9.50;99.90;;;;;;4164584;28;20346;-77
2021/05/22 05:30:54;;;;;;;15.32;4.25;;;9.40;99.90;;;;;;4165816;28;20125;-77
2021/05/22 05:32:54;;;;;;;9.05;3.70;;;9.40;99.90;;;;;;4163783;28;20022;-79
2021/05/22 05:34:55;;;;;;;13.88;3.83;;;9.40;99.90;;;;;;4164059;28;20088;-77
2021/05/22 05:36:55;;;;;;;12.15;3.80;;;9.40;99.90;;;;;;4165756;28;20033;-78
2021/05/22 05:38:56;;;;;;;12.55;3.50;;;9.40;99.90;;;;;;4164807;28;20488;-78
2021/05/22 05:40:57;;;;;;;9.43;3.33;;;9.50;99.90;;;;;;4163533;28;20116;-77
2021/05/22 05:42:59;;;;;;;10.23;3.97;;;9.50;99.90;;;;;;4163354;28;20025;-78
2021/05/22 05:45:01;;;;;;;10.75;4.35;;;9.50;99.90;;;;;;4165661;28;20038;-77
2021/05/22 05:47:02;;;;;;;8.50;3.72;;;9.50;99.90;;;;;;4162632;28;20542;-78
2021/05/22 05:49:03;;;;;;;8.07;3.88;;;9.50;99.90;;;;;;4163872;28;20022;-78
2021/05/22 05:51:03;;;;;;;12.35;4.43;;;9.40;99.90;;;;;;4163113;28;20050;-78
2021/05/22 05:53:04;;;;;;;9.50;4.47;;;9.50;99.90;;;;;;4165170;28;20022;-77
2021/05/22 05:55:05;;;;;;;7.75;3.30;;;9.50;99.90;;;;;;4162624;28;20040;-77
2021/05/22 05:57:06;;;;;;;5.75;3.90;;;9.60;99.90;;;;;;4164970;28;20552;-79
2021/05/22 05:59:07;;;;;;;11.57;3.72;;;9.50;99.90;;;;;;4160603;28;20092;-80
2021/05/22 06:01:10;;;;;;;10.00;4.95;;;9.60;99.90;;;;;;4164619;28;20029;-76
2021/05/22 06:03:11;;;;;;;7.80;3.33;;;9.50;99.90;;;;;;4163012;28;20049;-76
2021/05/22 06:05:12;;;;;;;7.53;5.15;;;9.50;99.90;;;;;;4163888;28;20041;-77
2021/05/22 06:07:13;;;;;;;5.90;3.80;;;9.50;99.90;;;;;;4164530;28;20108;-79
2021/05/22 06:09:13;;;;;;;5.97;3.15;;;9.50;99.90;;;;;;4165240;28;20033;-77
2021/05/22 06:11:17;;;;;;;6.15;3.80;;;9.50;99.90;;;;;;4160501;28;20496;-77
2021/05/22 06:13:31;;;;;;;;;;;9.50;99.90;;;;;;4163651;28;20509;-79
2021/05/22 06:15:33;;;;;;;13.15;4.40;;;9.50;99.90;;;;;;4164947;28;19917;-76
2021/05/22 06:17:34;;;;;;;7.50;3.65;;;9.50;99.90;;;;;;4164847;28;20026;-79
2021/05/22 06:19:35;;;;;;;9.52;4.00;;;9.50;99.90;;;;;;4164957;28;20176;-81
2021/05/22 06:21:37;;;;;;;10.52;4.50;;;9.50;99.90;;;;;;4163945;28;20040;-79
2021/05/22 06:23:38;;;;;;;8.23;4.75;;;9.40;99.90;;;;;;4163477;28;20040;-78
2021/05/22 06:25:40;;;;;;;13.05;4.47;;;9.40;99.90;;;;;;4164450;28;20388;-79
2021/05/22 06:27:40;;;;;;;12.75;5.00;;;9.50;99.90;;;;;;4163461;28;20041;-79
2021/05/22 06:29:41;;;;;;;7.57;4.38;;;9.50;99.90;;;;;;4179814;28;20048;-78
2021/05/22 06:31:44;;;;;;;10.15;4.65;;;9.50;99.90;;;;;;4161415;28;20182;-78
2021/05/22 06:33:45;;;;;;;9.30;4.27;;;9.60;99.90;;;;;;4163474;28;20050;-80
2021/05/22 06:35:45;;;;;;;7.47;4.25;;;9.60;99.90;;;;;;4163942;28;20319;-79
2021/05/22 06:37:48;;;;;;;10.05;5.13;;;9.60;99.90;;;;;;4146671;28;20030;-83
2021/05/22 06:39:53;;;;;;;11.95;5.15;;;9.60;99.90;;;;;;4164681;28;20060;-80
2021/05/22 06:41:56;;;;;;;8.30;4.28;;;9.60;99.90;;;;;;4163464;28;20041;-78
2021/05/22 06:43:59;;;;;;;4.82;3.55;;;9.60;99.90;;;;;;4162828;28;20026;-78
2021/05/22 06:46:46;;;;;;;12.68;4.47;;;9.60;99.90;;;;;;4169649;28;20121;-80
2021/05/22 06:48:20;;;;;;;5.63;3.90;;;9.60;99.90;;;;;;4166333;28;20503;-80
2021/05/22 06:50:20;;;;;;;7.93;5.93;;;9.60;99.90;;;;;;4163371;28;20054;-81
2021/05/22 06:52:21;;;;;;;8.15;4.40;;;9.50;99.90;;;;;;4162217;28;20052;-79
2021/05/22 06:54:22;;;;;;;5.93;4.03;;;9.50;99.90;;;;;;4162980;28;20029;-80
2021/05/22 06:56:22;;;;;;;6.63;4.63;;;9.50;99.90;;;;;;4164836;28;20083;-78
2021/05/22 06:58:28;;;;;;;6.95;4.40;;;9.60;99.90;;;;;;4163334;28;20056;-78
2021/05/22 07:00:28;;;;;;;8.13;4.47;;;9.50;99.90;;;;;;4163411;28;20033;-77
2021/05/22 07:02:29;;;;;;;12.23;5.90;;;9.50;99.90;;;;;;4179359;28;20491;-78
2021/05/22 07:04:32;;;;;;;10.07;4.15;;;9.50;99.90;;;;;;4164441;28;20113;-78
2021/05/22 07:06:32;;;;;;;5.20;4.70;;;9.50;99.90;;;;;;4163994;28;20057;-77
2021/05/22 07:08:33;;;;;;;9.55;4.93;;;9.50;99.90;;;;;;4164541;28;20195;-77
2021/05/22 07:10:34;;;;;;;9.48;5.00;;;9.50;99.90;;;;;;4164558;28;20101;-78
2021/05/22 07:12:35;;;;;;;8.15;5.07;;;9.60;99.90;;;;;;4163422;28;20049;-79
2021/05/22 07:14:36;;;;;;;12.73;5.13;;;9.50;99.90;;;;;;4163261;28;20471;-78
2021/05/22 07:16:36;;;;;;;5.68;2.80;;;9.50;99.90;;;;;;4162915;28;20061;-76
2021/05/22 07:18:38;;;;;;;7.95;4.43;;;9.70;99.90;;;;;;4164410;28;20048;-78
2021/05/22 07:20:39;;;;;;;4.15;3.75;;;9.80;99.90;;;;;;4164119;28;20044;-78
2021/05/22 07:22:40;;;;;;;7.03;5.13;;;9.80;99.90;;;;;;4164128;28;20357;-78
2021/05/22 07:24:42;;;;;;;6.43;4.03;;;9.90;99.90;;;;;;4164529;28;20029;-77
2021/05/22 07:26:43;;;;;;;13.40;5.05;;;9.90;99.90;;;;;;4163263;28;20041;-78
2021/05/22 07:28:43;;;;;;;7.78;5.65;;;9.90;99.90;;;;;;4161268;28;20034;-77
2021/05/22 07:30:44;;;;;;;10.23;4.78;;;9.80;99.90;;;;;;4194561;28;20205;-77
2021/05/22 07:32:45;;;;;;;6.20;4.15;;;9.90;99.90;;;;;;4164089;28;20049;-76
2021/05/22 07:34:46;;;;;;;13.90;5.13;;;10.00;99.90;;;;;;4162679;28;20049;-77
2021/05/22 07:36:47;;;;;;;10.98;6.10;;;10.10;99.90;;;;;;4162602;28;20046;-77
2021/05/22 07:38:50;;;;;;;8.80;4.70;;;10.00;99.90;;;;;;4163921;28;20049;-80
2021/05/22 07:40:50;;;;;;;7.43;6.57;;;10.00;99.90;;;;;;4164260;28;20029;-78
2021/05/22 07:42:51;;;;;;;11.30;5.80;;;10.10;99.90;;;;;;4162009;28;20040;-78
2021/05/22 07:44:53;;;;;;;9.15;5.18;;;10.10;99.90;;;;;;4163659;28;20026;-78
2021/05/22 07:46:53;;;;;;;6.63;5.50;;;10.20;99.90;;;;;;4162159;28;20045;-78
2021/05/22 07:48:54;;;;;;;7.32;5.70;;;10.20;99.90;;;;;;4159855;28;20113;-78
2021/05/22 07:50:55;;;;;;;7.80;7.00;;;10.10;99.90;;;;;;4161080;28;20124;-79
2021/05/22 07:52:56;;;;;;;9.00;4.95;;;10.20;99.90;;;;;;4163268;28;20041;-78
2021/05/22 07:54:57;;;;;;;9.07;5.55;;;10.30;99.90;;;;;;4161994;28;20115;-79
2021/05/22 07:56:58;;;;;;;6.25;5.22;;;10.30;99.90;;;;;;4163383;28;20116;-79
2021/05/22 07:58:59;;;;;;;5.60;5.05;;;10.30;99.90;;;;;;4159694;28;20389;-80
2021/05/22 08:01:00;;;;;;;7.25;5.65;;;10.30;99.90;;;;;;4162274;28;20059;-80
2021/05/22 08:03:00;;;;;;;8.45;4.90;;;10.30;99.90;;;;;;4164255;28;20030;-79
2021/05/22 08:05:01;;;;;;;6.75;5.15;;;10.30;99.90;;;;;;4162503;28;20025;-80
2021/05/22 08:07:02;;;;;;;5.20;3.80;;;10.50;99.90;;;;;;4164316;28;20073;-78
2021/05/22 08:09:07;;;;;;;9.23;5.40;;;10.50;99.90;;;;;;4162892;28;20419;-78
2021/05/22 08:11:08;;;;;;;5.88;4.90;;;10.50;99.90;;;;;;4161716;28;20036;-81
2021/05/22 08:13:10;;;;;;;7.70;5.10;;;10.50;99.90;;;;;;4161965;28;20033;-78
2021/05/22 08:15:11;;;;;;;5.13;4.63;;;10.40;99.90;;;;;;4162042;28;20021;-78
2021/05/22 08:17:13;;;;;;;7.65;5.57;;;10.40;99.90;;;;;;4157443;28;20389;-79
2021/05/22 08:19:14;;;;;;;6.43;5.45;;;10.40;99.90;;;;;;4163579;28;20044;-77
2021/05/22 08:21:18;;;;;;;8.45;5.50;;;10.30;99.90;;;;;;4161858;28;20056;-78
2021/05/22 08:23:18;;;;;;;7.50;5.88;;;10.30;99.90;;;;;;4178722;28;20029;-79
2021/05/22 08:25:19;;;;;;;7.22;5.57;;;10.30;99.90;;;;;;4164038;28;20105;-78
2021/05/22 08:27:21;;;;;;;8.57;4.85;;;10.30;99.90;;;;;;4156786;28;20033;-79
2021/05/22 08:29:22;;;;;;;6.60;5.55;;;10.40;99.90;;;;;;4176264;28;20059;-79
2021/05/22 08:31:23;;;;;;;6.72;4.68;;;10.30;99.90;;;;;;4162920;28;20025;-77
2021/05/22 08:33:24;;;;;;;3.60;3.30;;;10.40;99.90;;;;;;4161751;28;20460;-80
2021/05/22 08:35:29;;;;;;;5.47;4.93;;;10.50;99.90;;;;;;4162560;28;20036;-79
2021/05/22 08:37:30;;;;;;;5.32;4.82;;;10.50;99.90;;;;;;4162129;28;20041;-78
2021/05/22 08:39:32;;;;;;;6.75;5.15;;;10.50;99.90;;;;;;4165533;28;20025;-77
2021/05/22 08:41:34;;;;;;;6.40;4.97;;;10.60;99.90;;;;;;4156609;28;20548;-81
2021/05/22 08:43:35;;;;;;;6.70;5.63;;;10.60;99.90;;;;;;4149578;28;20030;-79
2021/05/22 08:45:36;;;;;;;7.50;5.88;;;10.60;99.90;;;;;;4165900;28;20075;-79
2021/05/22 08:47:38;;;;;;;8.00;6.22;;;10.60;99.90;;;;;;4166610;28;20509;-81
2021/05/22 08:49:42;;;;;;;6.45;5.85;;;10.60;99.90;;;;;;4164863;28;20045;-83
2021/05/22 08:51:44;;;;;;;7.90;6.20;;;10.60;99.90;;;;;;4165025;28;20337;-78
2021/05/22 08:53:45;;;;;;;6.85;6.10;;;10.50;99.90;;;;;;4165309;28;20064;-81
2021/05/22 08:55:45;;;;;;;11.50;6.07;;;10.60;99.90;;;;;;4167062;28;20267;-81
2021/05/22 08:57:48;;;;;;;7.70;7.00;;;10.50;99.90;;;;;;4165627;28;20045;-79
2021/05/22 08:59:49;;;;;;;9.80;7.28;;;10.50;99.90;;;;;;4164834;28;20038;-78
2021/05/22 09:01:50;;;;;;;7.88;7.10;;;10.50;99.90;;;;;;4165561;28;20075;-78
2021/05/22 09:03:51;;;;;;;8.45;7.65;;;10.40;99.90;;;;;;4159351;28;20033;-79
2021/05/22 09:05:51;;;;;;;11.52;7.80;;;10.40;99.90;;;;;;4179382;28;20116;-78
2021/05/22 09:07:55;;;;;;;8.05;7.25;;;10.40;99.90;;;;;;4164408;28;20034;-79
2021/05/22 09:10:14;;;;;;;11.63;8.15;;;10.50;99.90;;;;;;4180075;28;20423;-79
2021/05/22 09:12:19;;;;;;;7.60;6.80;;;10.60;99.90;;;;;;4158846;28;20044;-79
2021/05/22 09:14:47;;;;;;;9.95;7.38;;;10.60;99.90;;;;;;4166268;28;20446;-77
2021/05/22 09:16:50;;;;;;;7.78;7.10;;;10.70;99.90;;;;;;4162425;28;20554;-77
2021/05/22 09:18:51;;;;;;;14.63;8.00;;;10.60;99.90;;;;;;4164958;28;20038;-80
2021/05/22 09:20:59;;;;;;;9.50;8.18;;;10.50;99.90;;;;;;4165203;28;20033;-79
2021/05/22 09:23:00;;;;;;;11.00;7.57;;;10.40;99.90;;;;;;4166359;28;20037;-80
2021/05/22 09:25:06;;;;;;;13.52;9.07;;;10.40;99.90;;;;;;4165220;28;20464;-80
2021/05/22 09:27:09;;;;;;;11.35;10.20;;;10.40;99.90;;;;;;4166064;28;20033;-80
2021/05/22 09:29:23;;;;;;;10.77;9.68;;;10.30;99.90;;;;;;4166785;28;20087;-80
2021/05/22 09:31:27;;;;;;;13.07;9.90;;;10.20;99.90;;;;;;4165513;28;20123;-78
2021/05/22 09:33:29;;;;;;;10.35;9.07;;;10.20;99.90;;;;;;4165756;28;20033;-80
2021/05/22 09:35:30;;;;;;;12.13;8.93;;;10.20;99.90;;;;;;4163403;28;20033;-79
2021/05/22 09:37:48;;;;;;;11.18;9.95;;;10.30;99.90;;;;;;4165860;28;20033;-78
2021/05/22 09:39:51;;;;;;;6.97;6.25;;;10.30;99.90;;;;;;4165860;28;20044;-83
2021/05/22 09:41:53;;;;;;;10.32;8.52;;;10.40;99.90;;;;;;4167336;28;20049;-82
2021/05/22 09:44:15;;;;;;;8.52;7.72;;;10.50;99.90;;;;;;4165560;28;20029;-78
2021/05/22 09:46:16;;;;;;;10.23;7.78;;;10.50;99.90;;;;;;4154424;28;20018;-77
2021/05/22 09:48:23;;;;;;;10.07;8.73;;;10.40;99.90;;;;;;4165789;28;20029;-76
2021/05/22 09:50:25;;;;;;;11.32;8.65;;;10.40;99.90;;;;;;4164197;28;20033;-78
2021/05/22 09:52:25;;;;;;;11.45;9.50;;;10.50;99.90;;;;;;4160049;28;20092;-79
2021/05/22 09:54:58;;;;;;;10.20;9.07;;;10.50;99.90;;;;;;4147028;28;20448;-78
2021/05/22 09:56:59;;;;;;;11.52;9.90;;;10.60;99.90;;;;;;4149742;28;20075;-78
2021/05/22 09:59:04;;;;;;;11.85;10.23;;;10.60;99.90;;;;;;4150060;28;20060;-78
2021/05/22 10:01:05;;;;;;;12.43;10.25;;;10.60;99.90;;;;;;4147679;28;20428;-78
2021/05/22 10:03:05;;;;;;;13.10;10.15;;;10.70;99.90;;;;;;4147880;28;20070;-79
2021/05/22 10:05:15;;;;;;;13.93;9.80;;;10.70;99.90;;;;;;4147618;28;20504;-80
2021/05/22 10:07:33;;;;;;;12.32;10.85;;;10.70;99.90;;;;;;4148444;28;20034;-80
2021/05/22 10:09:39;;;;;;;10.68;9.48;;;10.80;99.90;;;;;;4146837;28;20030;-80
2021/05/22 10:12:02;;;;;;;11.35;9.68;;;10.80;99.90;;;;;;4148763;28;20510;-80
2021/05/22 10:14:06;;;;;;;17.00;9.80;;;;;;;;;;4143048;28;20444;-79
2021/05/22 10:16:08;;;;;;;10.38;9.38;;;10.80;99.90;;;;;;4148683;28;20130;-80
2021/05/22 10:18:10;;;;;;;12.60;10.00;;;10.80;99.90;;;;;;4149040;28;20030;-78
2021/05/22 10:20:14;;;;;;;15.27;11.30;;;10.70;99.90;;;;;;4150020;28;20469;-79
2021/05/22 10:22:16;;;;;;;14.98;10.10;;;10.70;99.90;;;;;;4148798;28;20125;-80
2021/05/22 10:24:18;;;;;;;11.90;9.70;;;10.90;99.90;;;;;;4147364;28;20022;-81
2021/05/22 10:26:19;;;;;;;10.00;9.05;;;10.90;99.90;;;;;;4148773;28;20497;-80
2021/05/22 10:28:22;;;;;;;10.85;9.75;;;10.90;99.90;;;;;;4148881;28;20030;-80
2021/05/22 10:30:24;;;;;;;12.52;10.15;;;10.90;99.90;;;;;;4149459;28;20041;-81
2021/05/22 10:32:28;;;;;;;12.00;10.27;;;11.00;99.90;;;;;;4146283;28;20034;-79
2021/05/22 10:34:36;;;;;;;12.40;11.10;;;11.00;99.90;;;;;;4148689;28;20034;-79
2021/05/22 10:36:48;;;;;;;10.43;8.88;;;11.10;99.90;;;;;;4148513;28;20045;-80
2021/05/22 10:38:51;;;;;;;13.40;9.85;;;11.20;99.90;;;;;;4147058;28;20038;-77